sensor_id;sensor_type;location;lat;lon;timestamp;temperature;humidity
7046;DHT22;3564;53.326;10.356;2023-05-10T00:01:23;18.60;63.20
7046;DHT22;3564;53.326;10.356;2023-05-10T00:03:49;18.60;63.30
7046;DHT22;3564;53.326;10.356;2023-05-10T00:06:14;18.60;63.20
7046;DHT22;3564;53.326;10.356;2023-05-10T00:08:40;18.60;63.30
7046;DHT22;3564;53.326;10.356;2023-05-10T00:11:06;18.60;63.30
7046;DHT22;3564;53.326;10.356;2023-05-10T00:13:31;18.60;63.30
7046;DHT22;3564;53.326;10.356;2023-05-10T00:15:57;18.60;63.40
7046;DHT22;3564;53.326;10.356;2023-05-10T00:18:23;18.60;63.80
7046;DHT22;3564;53.326;10.356;2023-05-10T00:20:48;18.50;63.50
7046;DHT22;3564;53.326;10.356;2023-05-10T00:23:14;18.50;63.50
7046;DHT22;3564;53.326;10.356;2023-05-10T00:25:40;18.50;64.10
7046;DHT22;3564;53.326;10.356;2023-05-10T00:28:05;18.50;64.00
7046;DHT22;3564;53.326;10.356;2023-05-10T00:30:31;18.50;64.00
7046;DHT22;3564;53.326;10.356;2023-05-10T00:32:56;18.50;63.60
7046;DHT22;3564;53.326;10.356;2023-05-10T00:35:22;18.50;63.80
7046;DHT22;3564;53.326;10.356;2023-05-10T00:37:48;18.50;63.90
7046;DHT22;3564;53.326;10.356;2023-05-10T00:40:14;18.40;63.90
7046;DHT22;3564;53.326;10.356;2023-05-10T00:42:39;18.40;63.80
7046;DHT22;3564;53.326;10.356;2023-05-10T00:45:06;18.50;64.10
7046;DHT22;3564;53.326;10.356;2023-05-10T00:47:32;18.40;64.10
7046;DHT22;3564;53.326;10.356;2023-05-10T00:49:58;18.40;64.30
7046;DHT22;3564;53.326;10.356;2023-05-10T00:52:26;18.40;64.10
7046;DHT22;3564;53.326;10.356;2023-05-10T00:54:52;18.40;64.30
7046;DHT22;3564;53.326;10.356;2023-05-10T00:57:18;18.40;64.30
7046;DHT22;3564;53.326;10.356;2023-05-10T00:59:44;18.40;64.40
7046;DHT22;3564;53.326;10.356;2023-05-10T01:02:09;18.40;64.40
7046;DHT22;3564;53.326;10.356;2023-05-10T01:04:36;18.30;64.30
7046;DHT22;3564;53.326;10.356;2023-05-10T01:07:02;18.30;64.90
7046;DHT22;3564;53.326;10.356;2023-05-10T01:09:28;18.30;64.70
7046;DHT22;3564;53.326;10.356;2023-05-10T01:11:56;18.20;64.80
7046;DHT22;3564;53.326;10.356;2023-05-10T01:14:21;18.20;64.70
7046;DHT22;3564;53.326;10.356;2023-05-10T01:16:48;18.20;64.80
7046;DHT22;3564;53.326;10.356;2023-05-10T01:19:26;18.20;64.90
7046;DHT22;3564;53.326;10.356;2023-05-10T01:22:02;18.20;65.30
7046;DHT22;3564;53.326;10.356;2023-05-10T01:24:52;18.10;65.00
7046;DHT22;3564;53.326;10.356;2023-05-10T01:33:27;18.10;65.30
7046;DHT22;3564;53.326;10.356;2023-05-10T01:36:05;18.00;65.50
7046;DHT22;3564;53.326;10.356;2023-05-10T01:44:29;17.90;65.60
7046;DHT22;3564;53.326;10.356;2023-05-10T01:47:04;17.90;65.90
7046;DHT22;3564;53.326;10.356;2023-05-10T01:49:37;17.90;66.00
7046;DHT22;3564;53.326;10.356;2023-05-10T01:52:09;17.90;66.10
7046;DHT22;3564;53.326;10.356;2023-05-10T01:55:04;17.80;66.00
7046;DHT22;3564;53.326;10.356;2023-05-10T01:57:33;17.80;66.20
7046;DHT22;3564;53.326;10.356;2023-05-10T02:00:02;17.80;66.30
7046;DHT22;3564;53.326;10.356;2023-05-10T02:02:31;17.80;66.40
7046;DHT22;3564;53.326;10.356;2023-05-10T02:04:59;17.80;66.20
7046;DHT22;3564;53.326;10.356;2023-05-10T02:07:27;17.80;66.70
7046;DHT22;3564;53.326;10.356;2023-05-10T02:09:54;17.70;66.60
7046;DHT22;3564;53.326;10.356;2023-05-10T02:12:22;17.70;66.80
7046;DHT22;3564;53.326;10.356;2023-05-10T02:14:49;17.70;66.90
7046;DHT22;3564;53.326;10.356;2023-05-10T02:17:16;17.70;67.10
7046;DHT22;3564;53.326;10.356;2023-05-10T02:19:43;17.70;67.00
7046;DHT22;3564;53.326;10.356;2023-05-10T02:22:09;17.60;66.90
7046;DHT22;3564;53.326;10.356;2023-05-10T02:24:36;17.50;66.80
7046;DHT22;3564;53.326;10.356;2023-05-10T02:27:04;17.50;67.10
7046;DHT22;3564;53.326;10.356;2023-05-10T02:29:31;17.50;67.10
7046;DHT22;3564;53.326;10.356;2023-05-10T02:31:57;17.50;67.10
7046;DHT22;3564;53.326;10.356;2023-05-10T02:34:25;17.40;66.90
7046;DHT22;3564;53.326;10.356;2023-05-10T02:36:52;17.40;67.20
7046;DHT22;3564;53.326;10.356;2023-05-10T02:39:19;17.40;67.30
7046;DHT22;3564;53.326;10.356;2023-05-10T02:41:46;17.40;67.60
7046;DHT22;3564;53.326;10.356;2023-05-10T02:44:17;17.50;67.40
7046;DHT22;3564;53.326;10.356;2023-05-10T02:46:44;17.40;67.60
7046;DHT22;3564;53.326;10.356;2023-05-10T02:49:10;17.40;67.70
7046;DHT22;3564;53.326;10.356;2023-05-10T02:51:39;17.40;67.60
7046;DHT22;3564;53.326;10.356;2023-05-10T02:54:15;17.40;67.60
7046;DHT22;3564;53.326;10.356;2023-05-10T02:56:51;17.40;68.00
7046;DHT22;3564;53.326;10.356;2023-05-10T02:59:19;17.30;67.70
7046;DHT22;3564;53.326;10.356;2023-05-10T03:01:44;17.30;67.30
7046;DHT22;3564;53.326;10.356;2023-05-10T03:04:10;17.30;67.60
7046;DHT22;3564;53.326;10.356;2023-05-10T03:06:36;17.30;68.90
7046;DHT22;3564;53.326;10.356;2023-05-10T03:09:02;17.30;68.00
7046;DHT22;3564;53.326;10.356;2023-05-10T03:17:06;17.20;67.90
7046;DHT22;3564;53.326;10.356;2023-05-10T03:20:10;17.20;68.30
7046;DHT22;3564;53.326;10.356;2023-05-10T03:22:49;17.20;68.30
7046;DHT22;3564;53.326;10.356;2023-05-10T03:25:16;17.10;68.30
7046;DHT22;3564;53.326;10.356;2023-05-10T03:27:45;17.10;68.40
7046;DHT22;3564;53.326;10.356;2023-05-10T03:30:31;17.10;68.40
7046;DHT22;3564;53.326;10.356;2023-05-10T03:32:56;17.10;68.40
7046;DHT22;3564;53.326;10.356;2023-05-10T03:35:22;17.10;68.60
7046;DHT22;3564;53.326;10.356;2023-05-10T03:37:48;17.10;68.90
7046;DHT22;3564;53.326;10.356;2023-05-10T03:40:14;17.00;68.90
7046;DHT22;3564;53.326;10.356;2023-05-10T03:43:00;17.00;68.90
7046;DHT22;3564;53.326;10.356;2023-05-10T03:45:25;16.90;69.10
7046;DHT22;3564;53.326;10.356;2023-05-10T03:47:51;16.90;69.20
7046;DHT22;3564;53.326;10.356;2023-05-10T03:50:16;16.90;69.30
7046;DHT22;3564;53.326;10.356;2023-05-10T03:52:42;16.90;69.40
7046;DHT22;3564;53.326;10.356;2023-05-10T03:55:08;16.90;69.70
7046;DHT22;3564;53.326;10.356;2023-05-10T03:57:34;16.90;69.80
7046;DHT22;3564;53.326;10.356;2023-05-10T04:00:00;16.90;70.30
7046;DHT22;3564;53.326;10.356;2023-05-10T04:02:25;16.90;70.40
7046;DHT22;3564;53.326;10.356;2023-05-10T04:04:51;16.90;70.30
7046;DHT22;3564;53.326;10.356;2023-05-10T04:07:16;16.90;70.30
7046;DHT22;3564;53.326;10.356;2023-05-10T04:09:43;16.80;70.10
7046;DHT22;3564;53.326;10.356;2023-05-10T04:12:08;16.80;70.50
7046;DHT22;3564;53.326;10.356;2023-05-10T04:14:35;16.80;70.60
7046;DHT22;3564;53.326;10.356;2023-05-10T04:17:21;16.80;70.80
7046;DHT22;3564;53.326;10.356;2023-05-10T04:19:46;16.80;70.70
7046;DHT22;3564;53.326;10.356;2023-05-10T04:22:12;16.80;70.70
7046;DHT22;3564;53.326;10.356;2023-05-10T04:24:37;16.80;70.80
7046;DHT22;3564;53.326;10.356;2023-05-10T04:27:03;16.80;70.70
7046;DHT22;3564;53.326;10.356;2023-05-10T04:29:28;16.80;70.70
7046;DHT22;3564;53.326;10.356;2023-05-10T04:31:54;16.80;70.70
7046;DHT22;3564;53.326;10.356;2023-05-10T04:34:22;16.80;71.20
7046;DHT22;3564;53.326;10.356;2023-05-10T04:36:47;16.80;71.10
7046;DHT22;3564;53.326;10.356;2023-05-10T04:39:13;16.80;70.90
7046;DHT22;3564;53.326;10.356;2023-05-10T04:41:39;16.80;71.00
7046;DHT22;3564;53.326;10.356;2023-05-10T04:44:04;16.80;71.10
7046;DHT22;3564;53.326;10.356;2023-05-10T04:46:30;16.80;71.50
7046;DHT22;3564;53.326;10.356;2023-05-10T04:48:55;16.90;71.50
7046;DHT22;3564;53.326;10.356;2023-05-10T04:51:21;16.90;71.60
7046;DHT22;3564;53.326;10.356;2023-05-10T04:53:46;16.90;71.60
7046;DHT22;3564;53.326;10.356;2023-05-10T04:56:12;16.90;71.50
7046;DHT22;3564;53.326;10.356;2023-05-10T04:58:38;16.80;71.60
7046;DHT22;3564;53.326;10.356;2023-05-10T05:01:08;16.90;71.40
7046;DHT22;3564;53.326;10.356;2023-05-10T05:03:33;16.90;71.60
7046;DHT22;3564;53.326;10.356;2023-05-10T05:05:59;17.00;71.70
7046;DHT22;3564;53.326;10.356;2023-05-10T05:08:25;17.00;72.50
7046;DHT22;3564;53.326;10.356;2023-05-10T05:10:51;17.00;72.50
7046;DHT22;3564;53.326;10.356;2023-05-10T05:13:16;17.10;72.50
7046;DHT22;3564;53.326;10.356;2023-05-10T05:15:42;17.10;72.40
7046;DHT22;3564;53.326;10.356;2023-05-10T05:18:07;17.10;72.10
7046;DHT22;3564;53.326;10.356;2023-05-10T05:20:33;17.20;71.80
7046;DHT22;3564;53.326;10.356;2023-05-10T05:23:02;17.30;71.20
7046;DHT22;3564;53.326;10.356;2023-05-10T05:25:27;17.30;71.20
7046;DHT22;3564;53.326;10.356;2023-05-10T05:27:53;17.30;70.90
7046;DHT22;3564;53.326;10.356;2023-05-10T05:30:19;17.40;70.60
7046;DHT22;3564;53.326;10.356;2023-05-10T05:32:45;17.50;70.40
7046;DHT22;3564;53.326;10.356;2023-05-10T05:35:12;17.50;71.00
7046;DHT22;3564;53.326;10.356;2023-05-10T05:37:38;17.50;71.20
7046;DHT22;3564;53.326;10.356;2023-05-10T05:40:04;17.50;70.40
7046;DHT22;3564;53.326;10.356;2023-05-10T05:42:31;17.60;70.70
7046;DHT22;3564;53.326;10.356;2023-05-10T05:44:56;17.60;70.40
7046;DHT22;3564;53.326;10.356;2023-05-10T05:47:22;17.70;70.60
7046;DHT22;3564;53.326;10.356;2023-05-10T05:49:47;17.70;70.80
7046;DHT22;3564;53.326;10.356;2023-05-10T05:52:13;17.70;71.00
7046;DHT22;3564;53.326;10.356;2023-05-10T05:54:38;17.70;70.80
7046;DHT22;3564;53.326;10.356;2023-05-10T05:57:04;17.80;71.40
7046;DHT22;3564;53.326;10.356;2023-05-10T05:59:29;17.80;70.90
7046;DHT22;3564;53.326;10.356;2023-05-10T06:01:55;17.90;70.70
7046;DHT22;3564;53.326;10.356;2023-05-10T06:04:21;17.90;71.00
7046;DHT22;3564;53.326;10.356;2023-05-10T06:06:46;17.90;71.00
7046;DHT22;3564;53.326;10.356;2023-05-10T06:09:12;18.00;71.00
7046;DHT22;3564;53.326;10.356;2023-05-10T06:11:37;18.00;70.80
7046;DHT22;3564;53.326;10.356;2023-05-10T06:14:04;18.10;70.50
7046;DHT22;3564;53.326;10.356;2023-05-10T06:16:30;18.10;70.20
7046;DHT22;3564;53.326;10.356;2023-05-10T06:18:56;18.20;70.20
7046;DHT22;3564;53.326;10.356;2023-05-10T06:21:22;18.20;70.20
7046;DHT22;3564;53.326;10.356;2023-05-10T06:23:47;18.30;70.70
7046;DHT22;3564;53.326;10.356;2023-05-10T06:26:13;18.30;70.50
7046;DHT22;3564;53.326;10.356;2023-05-10T06:28:39;18.30;70.90
7046;DHT22;3564;53.326;10.356;2023-05-10T06:31:05;18.40;70.70
7046;DHT22;3564;53.326;10.356;2023-05-10T06:33:31;18.40;69.90
7046;DHT22;3564;53.326;10.356;2023-05-10T06:35:57;18.50;70.40
7046;DHT22;3564;53.326;10.356;2023-05-10T06:38:23;18.50;70.90
7046;DHT22;3564;53.326;10.356;2023-05-10T06:40:48;18.60;70.80
7046;DHT22;3564;53.326;10.356;2023-05-10T06:43:14;18.70;70.60
7046;DHT22;3564;53.326;10.356;2023-05-10T06:45:40;18.60;70.50
7046;DHT22;3564;53.326;10.356;2023-05-10T06:48:06;18.70;70.50
7046;DHT22;3564;53.326;10.356;2023-05-10T06:50:32;18.70;71.10
7046;DHT22;3564;53.326;10.356;2023-05-10T06:52:59;18.70;71.20
7046;DHT22;3564;53.326;10.356;2023-05-10T06:55:25;18.70;71.10
7046;DHT22;3564;53.326;10.356;2023-05-10T06:57:51;18.80;71.50
7046;DHT22;3564;53.326;10.356;2023-05-10T07:00:18;18.90;71.20
7046;DHT22;3564;53.326;10.356;2023-05-10T07:02:43;18.90;70.20
7046;DHT22;3564;53.326;10.356;2023-05-10T07:05:10;18.90;70.00
7046;DHT22;3564;53.326;10.356;2023-05-10T07:07:37;19.00;69.90
7046;DHT22;3564;53.326;10.356;2023-05-10T07:10:02;19.00;70.00
7046;DHT22;3564;53.326;10.356;2023-05-10T07:12:28;19.00;70.00
7046;DHT22;3564;53.326;10.356;2023-05-10T07:14:55;19.10;70.00
7046;DHT22;3564;53.326;10.356;2023-05-10T07:17:20;19.10;69.90
7046;DHT22;3564;53.326;10.356;2023-05-10T07:19:46;19.10;70.00
7046;DHT22;3564;53.326;10.356;2023-05-10T07:22:11;19.20;71.00
7046;DHT22;3564;53.326;10.356;2023-05-10T07:24:37;19.20;71.40
7046;DHT22;3564;53.326;10.356;2023-05-10T07:27:03;19.20;71.40
7046;DHT22;3564;53.326;10.356;2023-05-10T07:29:32;19.20;71.50
7046;DHT22;3564;53.326;10.356;2023-05-10T07:31:59;19.30;71.40
7046;DHT22;3564;53.326;10.356;2023-05-10T07:34:25;19.40;71.00
7046;DHT22;3564;53.326;10.356;2023-05-10T07:36:51;19.40;70.70
7046;DHT22;3564;53.326;10.356;2023-05-10T07:39:17;19.50;70.70
7046;DHT22;3564;53.326;10.356;2023-05-10T07:41:42;19.60;71.00
7046;DHT22;3564;53.326;10.356;2023-05-10T07:44:08;19.70;70.80
7046;DHT22;3564;53.326;10.356;2023-05-10T07:46:34;19.70;70.80
7046;DHT22;3564;53.326;10.356;2023-05-10T07:48:59;19.70;71.00
7046;DHT22;3564;53.326;10.356;2023-05-10T07:51:25;19.70;71.70
7046;DHT22;3564;53.326;10.356;2023-05-10T07:53:50;19.80;70.90
7046;DHT22;3564;53.326;10.356;2023-05-10T07:56:26;19.70;70.30
7046;DHT22;3564;53.326;10.356;2023-05-10T07:58:55;19.70;70.50
7046;DHT22;3564;53.326;10.356;2023-05-10T08:01:22;19.70;70.70
7046;DHT22;3564;53.326;10.356;2023-05-10T08:03:48;19.70;70.90
7046;DHT22;3564;53.326;10.356;2023-05-10T08:06:15;19.80;70.90
7046;DHT22;3564;53.326;10.356;2023-05-10T08:08:41;19.80;70.70
7046;DHT22;3564;53.326;10.356;2023-05-10T08:11:07;19.80;70.30
7046;DHT22;3564;53.326;10.356;2023-05-10T08:13:32;19.80;70.90
7046;DHT22;3564;53.326;10.356;2023-05-10T08:15:59;19.80;71.20
7046;DHT22;3564;53.326;10.356;2023-05-10T08:18:25;19.80;71.10
7046;DHT22;3564;53.326;10.356;2023-05-10T08:20:51;19.90;71.10
7046;DHT22;3564;53.326;10.356;2023-05-10T08:23:18;19.80;70.90
7046;DHT22;3564;53.326;10.356;2023-05-10T08:25:46;19.90;70.90
7046;DHT22;3564;53.326;10.356;2023-05-10T08:28:12;19.90;71.80
7046;DHT22;3564;53.326;10.356;2023-05-10T08:30:37;19.80;71.00
7046;DHT22;3564;53.326;10.356;2023-05-10T08:33:03;19.90;70.80
7046;DHT22;3564;53.326;10.356;2023-05-10T08:35:28;19.90;71.60
7046;DHT22;3564;53.326;10.356;2023-05-10T08:37:54;19.90;72.60
7046;DHT22;3564;53.326;10.356;2023-05-10T08:40:20;20.00;72.90
7046;DHT22;3564;53.326;10.356;2023-05-10T08:42:58;20.10;72.70
7046;DHT22;3564;53.326;10.356;2023-05-10T08:45:26;20.10;71.70
7046;DHT22;3564;53.326;10.356;2023-05-10T08:47:53;20.10;72.00
7046;DHT22;3564;53.326;10.356;2023-05-10T08:50:20;20.10;72.30
7046;DHT22;3564;53.326;10.356;2023-05-10T08:52:48;20.10;72.20
7046;DHT22;3564;53.326;10.356;2023-05-10T08:55:16;20.10;72.10
7046;DHT22;3564;53.326;10.356;2023-05-10T08:57:42;20.10;72.30
7046;DHT22;3564;53.326;10.356;2023-05-10T09:00:08;20.00;72.20
7046;DHT22;3564;53.326;10.356;2023-05-10T09:02:35;20.00;72.20
7046;DHT22;3564;53.326;10.356;2023-05-10T09:05:02;20.00;72.40
7046;DHT22;3564;53.326;10.356;2023-05-10T09:07:29;19.90;72.70
7046;DHT22;3564;53.326;10.356;2023-05-10T09:09:56;19.90;73.20
7046;DHT22;3564;53.326;10.356;2023-05-10T09:12:22;19.90;73.60
7046;DHT22;3564;53.326;10.356;2023-05-10T09:14:48;19.90;73.30
7046;DHT22;3564;53.326;10.356;2023-05-10T09:17:16;19.90;73.30
7046;DHT22;3564;53.326;10.356;2023-05-10T09:19:41;19.80;73.00
7046;DHT22;3564;53.326;10.356;2023-05-10T09:22:07;19.90;73.40
7046;DHT22;3564;53.326;10.356;2023-05-10T09:24:32;19.90;73.90
7046;DHT22;3564;53.326;10.356;2023-05-10T09:26:58;19.90;73.80
7046;DHT22;3564;53.326;10.356;2023-05-10T09:29:23;19.90;74.20
7046;DHT22;3564;53.326;10.356;2023-05-10T09:31:51;19.90;74.20
7046;DHT22;3564;53.326;10.356;2023-05-10T09:34:28;19.90;74.60
7046;DHT22;3564;53.326;10.356;2023-05-10T09:36:55;19.90;74.90
7046;DHT22;3564;53.326;10.356;2023-05-10T09:39:30;20.00;75.40
7046;DHT22;3564;53.326;10.356;2023-05-10T09:41:58;20.00;75.50
7046;DHT22;3564;53.326;10.356;2023-05-10T09:44:25;20.00;74.70
7046;DHT22;3564;53.326;10.356;2023-05-10T09:46:51;19.90;74.40
7046;DHT22;3564;53.326;10.356;2023-05-10T09:49:20;19.90;74.20
7046;DHT22;3564;53.326;10.356;2023-05-10T09:51:46;19.90;74.40
7046;DHT22;3564;53.326;10.356;2023-05-10T09:54:14;19.90;75.30
7046;DHT22;3564;53.326;10.356;2023-05-10T09:56:40;19.90;75.20
7046;DHT22;3564;53.326;10.356;2023-05-10T09:59:09;19.80;75.50
7046;DHT22;3564;53.326;10.356;2023-05-10T10:01:35;19.80;76.20
7046;DHT22;3564;53.326;10.356;2023-05-10T10:04:10;19.80;77.40
7046;DHT22;3564;53.326;10.356;2023-05-10T10:06:39;19.70;79.00
7046;DHT22;3564;53.326;10.356;2023-05-10T10:09:08;19.50;80.40
7046;DHT22;3564;53.326;10.356;2023-05-10T10:11:36;19.30;81.30
7046;DHT22;3564;53.326;10.356;2023-05-10T10:14:02;19.20;82.20
7046;DHT22;3564;53.326;10.356;2023-05-10T10:16:31;19.30;82.90
7046;DHT22;3564;53.326;10.356;2023-05-10T10:18:58;19.20;83.30
7046;DHT22;3564;53.326;10.356;2023-05-10T10:21:24;19.20;83.70
7046;DHT22;3564;53.326;10.356;2023-05-10T10:23:51;19.20;83.80
7046;DHT22;3564;53.326;10.356;2023-05-10T10:26:17;19.10;85.70
7046;DHT22;3564;53.326;10.356;2023-05-10T10:32:22;19.00;88.50
7046;DHT22;3564;53.326;10.356;2023-05-10T10:34:44;18.90;89.70
7046;DHT22;3564;53.326;10.356;2023-05-10T10:37:10;18.80;90.40
7046;DHT22;3564;53.326;10.356;2023-05-10T10:39:39;18.70;91.00
7046;DHT22;3564;53.326;10.356;2023-05-10T10:42:05;18.60;91.50
7046;DHT22;3564;53.326;10.356;2023-05-10T10:49:52;18.40;93.40
7046;DHT22;3564;53.326;10.356;2023-05-10T10:52:34;18.30;93.90
7046;DHT22;3564;53.326;10.356;2023-05-10T10:55:14;18.40;94.40
7046;DHT22;3564;53.326;10.356;2023-05-10T11:00:22;18.30;94.90
7046;DHT22;3564;53.326;10.356;2023-05-10T11:05:45;18.20;95.50
7046;DHT22;3564;53.326;10.356;2023-05-10T11:08:17;18.30;96.00
7046;DHT22;3564;53.326;10.356;2023-05-10T11:11:12;18.20;96.20
7046;DHT22;3564;53.326;10.356;2023-05-10T11:13:46;18.20;96.50
7046;DHT22;3564;53.326;10.356;2023-05-10T11:16:24;18.30;96.90
7046;DHT22;3564;53.326;10.356;2023-05-10T11:21:28;18.30;97.50
7046;DHT22;3564;53.326;10.356;2023-05-10T11:23:55;18.30;97.70
7046;DHT22;3564;53.326;10.356;2023-05-10T11:26:23;18.30;97.50
7046;DHT22;3564;53.326;10.356;2023-05-10T11:28:54;18.30;97.50
7046;DHT22;3564;53.326;10.356;2023-05-10T11:31:21;18.30;97.80
7046;DHT22;3564;53.326;10.356;2023-05-10T11:33:49;18.30;98.00
7046;DHT22;3564;53.326;10.356;2023-05-10T11:38:51;18.40;98.00
7046;DHT22;3564;53.326;10.356;2023-05-10T11:41:18;18.40;98.10
7046;DHT22;3564;53.326;10.356;2023-05-10T11:43:46;18.40;98.40
7046;DHT22;3564;53.326;10.356;2023-05-10T11:46:14;18.50;98.70
7046;DHT22;3564;53.326;10.356;2023-05-10T11:48:42;18.40;98.70
7046;DHT22;3564;53.326;10.356;2023-05-10T11:51:08;18.40;98.80
7046;DHT22;3564;53.326;10.356;2023-05-10T11:53:34;18.50;99.20
7046;DHT22;3564;53.326;10.356;2023-05-10T11:56:07;18.60;99.30
7046;DHT22;3564;53.326;10.356;2023-05-10T11:58:33;18.70;99.50
7046;DHT22;3564;53.326;10.356;2023-05-10T12:00:59;18.70;99.60
7046;DHT22;3564;53.326;10.356;2023-05-10T12:03:26;18.70;99.70
7046;DHT22;3564;53.326;10.356;2023-05-10T12:05:52;18.70;99.30
7046;DHT22;3564;53.326;10.356;2023-05-10T12:08:26;18.70;99.00
7046;DHT22;3564;53.326;10.356;2023-05-10T12:10:53;18.70;98.90
7046;DHT22;3564;53.326;10.356;2023-05-10T12:13:20;18.70;99.00
7046;DHT22;3564;53.326;10.356;2023-05-10T12:15:46;18.70;99.10
7046;DHT22;3564;53.326;10.356;2023-05-10T12:18:13;18.70;99.10
7046;DHT22;3564;53.326;10.356;2023-05-10T12:20:39;18.70;99.40
7046;DHT22;3564;53.326;10.356;2023-05-10T12:23:05;18.70;99.50
7046;DHT22;3564;53.326;10.356;2023-05-10T12:25:34;18.70;99.60
7046;DHT22;3564;53.326;10.356;2023-05-10T12:28:04;18.70;99.70
7046;DHT22;3564;53.326;10.356;2023-05-10T12:30:31;18.70;99.60
7046;DHT22;3564;53.326;10.356;2023-05-10T12:33:12;18.70;99.50
7046;DHT22;3564;53.326;10.356;2023-05-10T12:35:52;18.80;99.60
7046;DHT22;3564;53.326;10.356;2023-05-10T12:38:29;18.80;99.60
7046;DHT22;3564;53.326;10.356;2023-05-10T12:40:58;18.80;99.70
7046;DHT22;3564;53.326;10.356;2023-05-10T12:43:24;18.80;99.90
7046;DHT22;3564;53.326;10.356;2023-05-10T12:45:50;18.80;99.90
7046;DHT22;3564;53.326;10.356;2023-05-10T12:48:17;18.80;99.90
7046;DHT22;3564;53.326;10.356;2023-05-10T12:50:42;18.80;99.90
7046;DHT22;3564;53.326;10.356;2023-05-10T12:53:08;18.80;99.90
7046;DHT22;3564;53.326;10.356;2023-05-10T12:55:34;18.70;99.80
7046;DHT22;3564;53.326;10.356;2023-05-10T12:57:59;18.70;99.90
7046;DHT22;3564;53.326;10.356;2023-05-10T13:00:25;18.70;99.90
7046;DHT22;3564;53.326;10.356;2023-05-10T13:02:51;18.80;99.90
7046;DHT22;3564;53.326;10.356;2023-05-10T13:05:17;18.80;99.90
7046;DHT22;3564;53.326;10.356;2023-05-10T13:07:43;18.90;99.90
7046;DHT22;3564;53.326;10.356;2023-05-10T13:10:09;19.00;99.90
7046;DHT22;3564;53.326;10.356;2023-05-10T13:12:35;19.00;99.90
7046;DHT22;3564;53.326;10.356;2023-05-10T13:15:00;19.10;99.90
7046;DHT22;3564;53.326;10.356;2023-05-10T13:17:26;19.20;99.90
7046;DHT22;3564;53.326;10.356;2023-05-10T13:19:51;19.30;99.90
7046;DHT22;3564;53.326;10.356;2023-05-10T13:22:17;19.30;99.90
7046;DHT22;3564;53.326;10.356;2023-05-10T13:24:43;19.40;99.90
7046;DHT22;3564;53.326;10.356;2023-05-10T13:27:08;19.40;99.90
7046;DHT22;3564;53.326;10.356;2023-05-10T13:29:34;19.50;99.90
7046;DHT22;3564;53.326;10.356;2023-05-10T13:32:00;19.50;99.90
7046;DHT22;3564;53.326;10.356;2023-05-10T13:34:26;19.60;99.90
7046;DHT22;3564;53.326;10.356;2023-05-10T13:36:52;19.60;99.90
7046;DHT22;3564;53.326;10.356;2023-05-10T13:39:19;19.70;99.90
7046;DHT22;3564;53.326;10.356;2023-05-10T13:41:45;19.60;99.90
7046;DHT22;3564;53.326;10.356;2023-05-10T13:44:12;19.60;99.90
7046;DHT22;3564;53.326;10.356;2023-05-10T13:46:39;19.70;99.90
7046;DHT22;3564;53.326;10.356;2023-05-10T13:49:05;19.70;99.90
7046;DHT22;3564;53.326;10.356;2023-05-10T13:51:31;19.70;99.90
7046;DHT22;3564;53.326;10.356;2023-05-10T13:53:57;19.70;99.90
7046;DHT22;3564;53.326;10.356;2023-05-10T13:56:23;19.80;99.90
7046;DHT22;3564;53.326;10.356;2023-05-10T13:58:48;19.80;99.90
7046;DHT22;3564;53.326;10.356;2023-05-10T14:01:14;19.80;99.90
7046;DHT22;3564;53.326;10.356;2023-05-10T14:03:41;19.90;99.90
7046;DHT22;3564;53.326;10.356;2023-05-10T14:06:08;20.00;99.90
7046;DHT22;3564;53.326;10.356;2023-05-10T14:08:35;20.00;99.90
7046;DHT22;3564;53.326;10.356;2023-05-10T14:11:00;20.10;99.90
7046;DHT22;3564;53.326;10.356;2023-05-10T14:13:26;20.00;99.90
7046;DHT22;3564;53.326;10.356;2023-05-10T14:15:54;20.10;99.60
7046;DHT22;3564;53.326;10.356;2023-05-10T14:18:20;20.20;99.40
7046;DHT22;3564;53.326;10.356;2023-05-10T14:20:46;20.30;99.50
7046;DHT22;3564;53.326;10.356;2023-05-10T14:23:14;20.40;99.90
7046;DHT22;3564;53.326;10.356;2023-05-10T14:25:40;20.60;99.90
7046;DHT22;3564;53.326;10.356;2023-05-10T14:28:06;20.80;99.90
7046;DHT22;3564;53.326;10.356;2023-05-10T14:30:32;20.90;99.50
7046;DHT22;3564;53.326;10.356;2023-05-10T14:32:59;21.10;99.40
7046;DHT22;3564;53.326;10.356;2023-05-10T14:35:27;21.20;98.80
7046;DHT22;3564;53.326;10.356;2023-05-10T14:37:53;21.20;98.50
7046;DHT22;3564;53.326;10.356;2023-05-10T14:40:19;21.30;98.10
7046;DHT22;3564;53.326;10.356;2023-05-10T14:42:46;21.30;97.90
7046;DHT22;3564;53.326;10.356;2023-05-10T14:45:12;21.30;98.00
7046;DHT22;3564;53.326;10.356;2023-05-10T14:47:37;21.40;98.20
7046;DHT22;3564;53.326;10.356;2023-05-10T14:50:03;21.40;98.00
7046;DHT22;3564;53.326;10.356;2023-05-10T14:52:29;21.40;97.90
7046;DHT22;3564;53.326;10.356;2023-05-10T14:54:54;21.40;97.80
7046;DHT22;3564;53.326;10.356;2023-05-10T14:57:20;21.30;97.80
7046;DHT22;3564;53.326;10.356;2023-05-10T14:59:45;21.30;97.50
7046;DHT22;3564;53.326;10.356;2023-05-10T15:02:12;21.30;97.70
7046;DHT22;3564;53.326;10.356;2023-05-10T15:04:38;21.20;97.70
7046;DHT22;3564;53.326;10.356;2023-05-10T15:07:04;21.20;97.70
7046;DHT22;3564;53.326;10.356;2023-05-10T15:09:29;21.20;97.50
7046;DHT22;3564;53.326;10.356;2023-05-10T15:11:55;21.10;97.30
7046;DHT22;3564;53.326;10.356;2023-05-10T15:14:22;21.00;97.40
7046;DHT22;3564;53.326;10.356;2023-05-10T15:16:47;21.00;97.40
7046;DHT22;3564;53.326;10.356;2023-05-10T15:19:13;21.00;97.30
7046;DHT22;3564;53.326;10.356;2023-05-10T15:21:38;20.90;97.40
7046;DHT22;3564;53.326;10.356;2023-05-10T15:24:08;21.00;97.80
7046;DHT22;3564;53.326;10.356;2023-05-10T15:26:33;21.00;97.80
7046;DHT22;3564;53.326;10.356;2023-05-10T15:28:59;21.00;97.70
7046;DHT22;3564;53.326;10.356;2023-05-10T15:31:25;21.00;97.70
7046;DHT22;3564;53.326;10.356;2023-05-10T15:33:56;21.00;97.50
7046;DHT22;3564;53.326;10.356;2023-05-10T15:36:21;21.00;97.60
7046;DHT22;3564;53.326;10.356;2023-05-10T15:38:47;21.10;97.80
7046;DHT22;3564;53.326;10.356;2023-05-10T15:41:13;21.20;97.70
7046;DHT22;3564;53.326;10.356;2023-05-10T15:43:38;21.20;97.60
7046;DHT22;3564;53.326;10.356;2023-05-10T15:46:04;21.20;97.50
7046;DHT22;3564;53.326;10.356;2023-05-10T15:48:31;21.20;97.50
7046;DHT22;3564;53.326;10.356;2023-05-10T15:50:57;21.10;97.30
7046;DHT22;3564;53.326;10.356;2023-05-10T15:53:23;21.10;97.20
7046;DHT22;3564;53.326;10.356;2023-05-10T15:55:48;21.10;97.20
7046;DHT22;3564;53.326;10.356;2023-05-10T15:58:14;21.00;97.30
7046;DHT22;3564;53.326;10.356;2023-05-10T16:00:40;21.00;97.50
7046;DHT22;3564;53.326;10.356;2023-05-10T16:03:05;21.00;97.40
7046;DHT22;3564;53.326;10.356;2023-05-10T16:05:31;20.90;97.30
7046;DHT22;3564;53.326;10.356;2023-05-10T16:08:01;20.70;97.30
7046;DHT22;3564;53.326;10.356;2023-05-10T16:10:27;20.70;97.20
7046;DHT22;3564;53.326;10.356;2023-05-10T16:12:53;20.70;97.30
7046;DHT22;3564;53.326;10.356;2023-05-10T16:15:19;20.70;97.40
7046;DHT22;3564;53.326;10.356;2023-05-10T16:17:46;20.70;97.40
7046;DHT22;3564;53.326;10.356;2023-05-10T16:20:11;20.60;97.50
7046;DHT22;3564;53.326;10.356;2023-05-10T16:22:37;20.50;97.70